Sant Just Desvern, Spain
Current Conditions -  °F | °C
As of 3:30 AM on Monday 26 Jan 2015 (Local Time) from LEBL Reporting Station
Clear Clear  
Wind Chill: 37°   Ceiling: Unl
Heat Index: 43°   Visibility: 6mi
Dew Point: 25°   Wind: 12mph
Humidity: 49%   Direction: 320°NW
Pressure: 30.21"   Gusts: NA
Location:  41.39°N, 2.08°E
Report Text: LEBL 260230Z 32010KT CAVOK 06/M04 Q1023 NOSIG
Loading
Personal Weather Stations






























Interactive Weather Map New forecast layout! Learn more

10-Day Weather Forecast

Advertisements
Track Severe Weather on mobile